createdAt,value
2023-05-22T07:14:50.096Z,5.54
2023-05-22T07:17:20.655Z,4.98
2023-05-22T07:19:49.003Z,4.52
2023-05-22T07:22:17.030Z,4.66
2023-05-22T07:24:46.550Z,4.01
2023-05-22T07:27:15.075Z,3.86
2023-05-22T07:29:43.226Z,4.09
2023-05-22T07:32:11.815Z,3.92
2023-05-22T07:34:40.032Z,3.93
2023-05-22T07:37:11.140Z,3.63
2023-05-22T07:39:39.412Z,3.54
2023-05-22T07:42:07.863Z,3.90
2023-05-22T07:44:39.523Z,3.70
2023-05-22T07:47:08.056Z,3.91
2023-05-22T07:49:36.481Z,3.64
2023-05-22T07:52:04.742Z,3.70
2023-05-22T07:54:33.193Z,3.40
2023-05-22T07:57:03.702Z,3.24
2023-05-22T07:59:35.962Z,3.46
2023-05-22T08:02:04.287Z,3.53
2023-05-22T08:04:32.674Z,3.54
2023-05-22T08:07:01.966Z,3.60
2023-05-22T08:09:30.192Z,3.25
2023-05-22T08:11:58.187Z,3.28
2023-05-22T08:14:26.307Z,3.66
2023-05-22T08:16:54.473Z,3.47
2023-05-22T08:19:22.661Z,3.52
2023-05-22T08:21:58.360Z,3.55
2023-05-22T08:24:30.685Z,3.74
2023-05-22T08:26:58.890Z,3.93
2023-05-22T08:29:27.253Z,3.65
2023-05-22T08:31:57.082Z,3.59
2023-05-22T08:34:25.860Z,3.65
2023-05-22T08:36:53.994Z,3.66
2023-05-22T08:39:22.009Z,3.26
2023-05-22T08:41:49.973Z,3.61
2023-05-22T08:44:19.868Z,3.64
2023-05-22T08:46:48.670Z,3.53
2023-05-22T08:49:16.687Z,3.63
2023-05-22T08:51:46.708Z,3.56
2023-05-22T08:54:14.981Z,3.68
2023-05-22T08:56:55.776Z,3.71
2023-05-22T08:59:25.118Z,3.90
2023-05-22T09:01:53.688Z,4.22
2023-05-22T09:04:23.812Z,3.78
2023-05-22T09:06:52.270Z,4.18
2023-05-22T09:09:20.752Z,3.93
2023-05-22T09:11:49.758Z,3.69
2023-05-22T09:14:18.649Z,4.17
2023-05-22T09:16:47.740Z,3.72
2023-05-22T09:19:16.218Z,3.88
2023-05-22T09:21:48.166Z,3.69
2023-05-22T09:24:16.540Z,4.05
2023-05-22T09:26:44.720Z,3.58
2023-05-22T09:29:12.763Z,3.82
2023-05-22T09:31:42.445Z,3.84
2023-05-22T09:34:11.225Z,3.98
2023-05-22T09:36:39.206Z,3.90
2023-05-22T09:39:07.329Z,4.05
2023-05-22T09:41:38.283Z,3.99
2023-05-22T09:44:14.240Z,3.89
2023-05-22T09:46:44.748Z,3.70
2023-05-22T09:49:16.106Z,3.72
2023-05-22T09:51:48.206Z,3.64
2023-05-22T09:54:17.669Z,3.59
2023-05-22T09:56:48.818Z,3.66
2023-05-22T09:59:26.832Z,3.70
2023-05-22T10:01:55.363Z,3.60
2023-05-22T10:04:23.720Z,3.58
2023-05-22T10:06:53.841Z,3.77
2023-05-22T10:09:24.886Z,3.89
2023-05-22T10:11:53.813Z,3.97
2023-05-22T10:14:22.312Z,4.01
2023-05-22T10:16:51.553Z,3.82
2023-05-22T10:19:20.567Z,3.61
2023-05-22T10:21:48.707Z,3.63
2023-05-22T10:24:16.777Z,3.85
2023-05-22T10:26:44.741Z,3.56
2023-05-22T10:29:25.811Z,3.64
2023-05-22T10:31:56.796Z,3.45
2023-05-22T10:34:42.550Z,3.71
2023-05-22T10:37:32.452Z,3.56
2023-05-22T10:40:13.530Z,3.91
2023-05-22T10:42:41.636Z,3.40
2023-05-22T10:45:10.727Z,3.69
2023-05-22T10:47:38.927Z,3.52
2023-05-22T10:50:11.656Z,3.41
2023-05-22T10:52:40.226Z,3.62
2023-05-22T10:55:09.342Z,3.67
2023-05-22T10:57:38.699Z,3.86
2023-05-22T11:00:07.992Z,3.76
2023-05-22T11:02:41.443Z,3.48
2023-05-22T11:05:21.717Z,3.60
2023-05-22T11:07:49.950Z,3.43
2023-05-22T11:10:27.808Z,3.65
2023-05-22T11:13:11.943Z,3.66
2023-05-22T11:15:44.255Z,3.40
2023-05-22T11:18:12.944Z,3.58
2023-05-22T11:20:41.644Z,3.43
2023-05-22T11:23:10.960Z,3.36
2023-05-22T11:25:41.417Z,3.45
2023-05-22T11:28:11.634Z,3.49
2023-05-22T11:30:39.802Z,3.51
2023-05-22T11:33:08.189Z,3.54
2023-05-22T11:35:36.922Z,3.71
2023-05-22T11:38:06.288Z,3.64
2023-05-22T11:40:34.310Z,3.57
2023-05-22T11:43:04.200Z,3.50
2023-05-22T11:45:32.229Z,3.31
2023-05-22T11:48:00.417Z,3.70
2023-05-22T11:50:41.888Z,3.69
2023-05-22T11:53:11.358Z,3.65
2023-05-22T11:55:39.375Z,3.45
2023-05-22T11:58:07.460Z,3.38
2023-05-22T12:00:35.561Z,3.31
2023-05-22T12:03:04.250Z,3.64
2023-05-22T12:05:32.717Z,3.63
2023-05-22T12:08:00.734Z,3.69
2023-05-22T12:10:28.930Z,3.47
2023-05-22T12:12:56.847Z,3.44
2023-05-22T12:15:25.674Z,3.57
2023-05-22T12:17:56.924Z,3.52
2023-05-22T12:20:30.781Z,3.72
2023-05-22T12:23:00.029Z,4.05
2023-05-22T12:25:34.178Z,3.67
2023-05-22T12:28:02.331Z,3.90
2023-05-22T12:30:40.017Z,3.89
2023-05-22T12:33:17.584Z,3.59
2023-05-22T12:35:46.053Z,3.89
2023-05-22T12:38:14.522Z,3.46
2023-05-22T12:40:42.793Z,3.49
2023-05-22T12:43:11.480Z,3.62
2023-05-22T12:45:42.515Z,3.28
2023-05-22T12:48:10.658Z,3.47
2023-05-22T12:50:39.065Z,3.59
2023-05-22T12:53:07.268Z,4.02
2023-05-22T12:55:36.028Z,4.17
2023-05-22T12:58:04.556Z,3.64
2023-05-22T13:00:32.698Z,3.53
2023-05-22T13:03:01.274Z,3.84
2023-05-22T13:05:29.327Z,4.15
2023-05-22T13:07:57.451Z,3.87
2023-05-22T13:10:25.438Z,3.60
2023-05-22T13:12:53.483Z,3.70
2023-05-22T13:15:21.731Z,3.73
2023-05-22T13:17:50.155Z,3.79
2023-05-22T13:20:19.040Z,4.26
2023-05-22T13:22:47.016Z,5.11
2023-05-22T13:25:15.103Z,4.23
2023-05-22T13:27:43.328Z,4.49
2023-05-22T13:30:11.755Z,4.49
2023-05-22T13:32:39.896Z,4.92
2023-05-22T13:35:08.783Z,4.29
2023-05-22T13:37:37.102Z,4.29
2023-05-22T13:40:06.548Z,5.28
2023-05-22T13:42:34.670Z,4.14
2023-05-22T13:45:04.144Z,4.11
2023-05-22T13:47:32.327Z,4.47
2023-05-22T13:50:00.735Z,4.30
2023-05-22T13:52:28.901Z,4.83
2023-05-22T13:54:56.919Z,4.95
2023-05-22T13:57:24.911Z,4.19
2023-05-22T13:59:53.181Z,4.55
2023-05-22T14:02:21.295Z,4.33
2023-05-22T14:04:51.578Z,4.01
2023-05-22T14:07:19.854Z,3.88
2023-05-22T14:09:47.956Z,4.27
2023-05-22T14:12:16.060Z,4.23
2023-05-22T14:14:44.098Z,5.34
2023-05-22T14:17:12.341Z,4.47
2023-05-22T14:19:40.663Z,4.06
2023-05-22T14:22:08.816Z,5.83
2023-05-22T14:24:36.965Z,5.18
2023-05-22T14:27:05.649Z,5.28
2023-05-22T14:29:33.837Z,5.22
2023-05-22T14:32:05.847Z,4.76
2023-05-22T14:34:33.994Z,4.93
2023-05-22T14:37:02.145Z,4.91
2023-05-22T14:39:30.416Z,4.83
2023-05-22T14:41:58.749Z,4.43
2023-05-22T14:44:26.746Z,4.52
2023-05-22T14:46:55.121Z,4.24
2023-05-22T14:49:23.419Z,4.22
2023-05-22T14:51:51.800Z,4.90
2023-05-22T14:54:20.595Z,4.40
2023-05-22T14:56:48.655Z,4.48
2023-05-22T14:59:17.067Z,3.98
2023-05-22T15:01:50.249Z,3.92
2023-05-22T15:04:18.560Z,3.93
2023-05-22T15:06:46.809Z,4.22
2023-05-22T15:09:15.175Z,3.97
2023-05-22T15:11:46.565Z,4.00
2023-05-22T15:14:15.612Z,4.01
2023-05-22T15:16:44.394Z,3.84
2023-05-22T15:19:12.837Z,4.02
2023-05-22T15:21:42.234Z,3.95
2023-05-22T15:24:10.549Z,3.86
2023-05-22T15:26:38.629Z,3.79
2023-05-22T15:29:06.660Z,3.49
2023-05-22T15:31:34.944Z,4.03
2023-05-22T15:34:03.129Z,3.56
2023-05-22T15:36:33.175Z,4.00
2023-05-22T15:39:01.248Z,3.79
2023-05-22T15:41:29.337Z,3.53
2023-05-22T15:43:57.487Z,3.60
2023-05-22T15:46:25.620Z,3.74
2023-05-22T15:48:54.561Z,4.07
2023-05-22T15:51:22.630Z,3.82
2023-05-22T15:53:51.036Z,4.08
2023-05-22T15:56:19.079Z,3.76
2023-05-22T15:58:47.242Z,3.82
2023-05-22T16:01:15.631Z,3.78
2023-05-22T16:03:43.911Z,3.75
2023-05-22T16:06:12.000Z,3.86
2023-05-22T16:08:40.046Z,3.63
2023-05-22T16:11:08.621Z,3.77
2023-05-22T16:13:37.116Z,3.75
2023-05-22T16:16:06.276Z,3.60
2023-05-22T16:18:34.306Z,3.70
2023-05-22T16:21:03.688Z,3.70
2023-05-22T16:23:31.840Z,3.67
2023-05-22T16:26:00.085Z,3.53
2023-05-22T16:28:28.513Z,3.60
2023-05-22T16:30:56.624Z,3.92
2023-05-22T16:33:25.000Z,3.99
2023-05-22T16:35:53.251Z,4.08
2023-05-22T16:38:21.412Z,4.14
2023-05-22T16:40:49.442Z,6.77
2023-05-22T16:43:17.763Z,5.48
2023-05-22T16:45:47.813Z,4.69
2023-05-22T16:48:16.487Z,5.42
2023-05-22T16:50:46.964Z,5.79
2023-05-22T16:53:17.532Z,5.74
2023-05-22T16:55:45.808Z,5.14
2023-05-22T16:58:14.154Z,5.49
2023-05-22T17:00:42.642Z,5.98
2023-05-22T17:03:12.166Z,6.01
2023-05-22T17:05:41.221Z,6.09
2023-05-22T17:08:09.518Z,6.30
2023-05-22T17:10:37.521Z,5.41
2023-05-22T17:13:05.809Z,5.08
2023-05-22T17:15:34.072Z,5.59
2023-05-22T17:18:02.100Z,5.77
2023-05-22T17:20:30.185Z,5.78
2023-05-22T17:22:58.209Z,5.64
2023-05-22T17:25:26.551Z,5.53
2023-05-22T17:27:54.730Z,5.52
2023-05-22T17:30:22.742Z,5.21
2023-05-22T17:32:53.718Z,5.62
2023-05-22T17:35:21.710Z,5.86
2023-05-22T17:37:49.828Z,5.70
2023-05-22T17:40:18.284Z,5.63
2023-05-22T17:42:47.055Z,5.85
2023-05-22T17:45:15.232Z,5.82
2023-05-22T17:47:43.408Z,5.92
2023-05-22T17:50:12.087Z,6.15
2023-05-22T17:52:41.293Z,6.42
2023-05-22T17:55:09.420Z,6.48
2023-05-22T17:57:37.646Z,6.04
2023-05-22T18:00:10.253Z,6.27
2023-05-22T18:02:41.204Z,6.48
2023-05-22T18:05:10.258Z,6.17
2023-05-22T18:07:38.395Z,6.39
2023-05-22T18:10:07.040Z,6.28
2023-05-22T18:12:36.702Z,6.10
2023-05-22T18:15:09.704Z,6.14
2023-05-22T18:17:38.960Z,6.40
2023-05-22T18:20:08.619Z,6.44
2023-05-22T18:22:37.438Z,6.14
2023-05-22T18:25:09.280Z,6.60
2023-05-22T18:27:37.306Z,7.08
2023-05-22T18:30:06.203Z,7.38
2023-05-22T18:32:34.616Z,7.76
2023-05-22T18:35:05.759Z,7.68
2023-05-22T18:37:33.691Z,7.20
2023-05-22T18:40:01.725Z,7.01
2023-05-22T18:42:29.990Z,6.68
2023-05-22T18:44:58.830Z,6.47
2023-05-22T18:47:27.005Z,6.89
2023-05-22T18:49:55.041Z,7.58
2023-05-22T18:52:23.746Z,7.19
2023-05-22T18:54:51.899Z,7.36
2023-05-22T18:57:21.777Z,7.19
2023-05-22T18:59:50.083Z,6.90
2023-05-22T19:02:21.299Z,6.64
2023-05-22T19:04:50.814Z,6.95
2023-05-22T19:07:19.024Z,6.22
2023-05-22T19:09:47.150Z,6.19
2023-05-22T19:12:15.331Z,6.97
2023-05-22T19:14:43.334Z,6.54
2023-05-22T19:17:12.221Z,6.56
2023-05-22T19:19:40.533Z,6.34
2023-05-22T19:22:08.649Z,6.54
2023-05-22T19:24:36.723Z,6.59
2023-05-22T19:27:04.815Z,7.04
2023-05-22T19:29:32.919Z,6.19
2023-05-22T19:32:00.867Z,5.74
2023-05-22T19:34:28.940Z,5.58
2023-05-22T19:36:57.982Z,5.93
2023-05-22T19:39:26.136Z,5.68
2023-05-22T19:41:54.704Z,5.52
2023-05-22T19:44:22.869Z,5.84
2023-05-22T19:46:50.972Z,5.74
2023-05-22T19:49:19.080Z,5.86
2023-05-22T19:51:47.086Z,5.38
2023-05-22T19:54:15.358Z,5.63
2023-05-22T19:56:43.330Z,5.56
2023-05-22T19:59:11.428Z,5.62
2023-05-22T20:01:39.474Z,5.72
2023-05-22T20:04:07.933Z,6.05
2023-05-22T20:06:35.976Z,5.77
2023-05-22T20:09:05.919Z,5.99
2023-05-22T20:11:33.967Z,5.97
2023-05-22T20:14:02.624Z,5.73
2023-05-22T20:16:30.673Z,6.05
2023-05-22T20:18:58.796Z,6.44
2023-05-22T20:21:27.454Z,6.22
2023-05-22T20:23:55.802Z,6.33
2023-05-22T20:26:23.969Z,6.33
2023-05-22T20:28:52.175Z,6.26
2023-05-22T20:31:20.229Z,6.01
2023-05-22T20:33:48.393Z,6.20
2023-05-22T20:36:16.671Z,6.28
2023-05-22T20:38:44.743Z,6.14
2023-05-22T20:41:13.083Z,6.70
2023-05-22T20:43:43.580Z,6.46
2023-05-22T20:46:12.696Z,6.48
2023-05-22T20:48:46.880Z,6.48
2023-05-22T20:51:21.206Z,5.90
2023-05-22T20:53:50.289Z,6.46
2023-05-22T20:56:18.319Z,6.27
2023-05-22T20:58:46.293Z,6.51
2023-05-22T21:01:14.410Z,6.32
2023-05-22T21:03:42.473Z,6.33
2023-05-22T21:06:10.687Z,6.39
2023-05-22T21:08:38.821Z,7.21
2023-05-22T21:11:07.573Z,7.52
2023-05-22T21:13:35.636Z,7.57
2023-05-22T21:16:03.833Z,8.15
2023-05-22T21:18:31.919Z,7.68
2023-05-22T21:21:00.128Z,7.76
2023-05-22T21:23:28.208Z,7.81
2023-05-22T21:25:56.240Z,8.45
2023-05-22T21:28:24.485Z,8.47
2023-05-22T21:30:52.469Z,8.15
2023-05-22T21:33:20.765Z,8.42
2023-05-22T21:35:49.191Z,9.30
2023-05-22T21:38:17.468Z,8.26
2023-05-22T21:40:45.880Z,8.86
2023-05-22T21:43:13.964Z,8.54
2023-05-22T21:45:41.998Z,8.82
2023-05-22T21:48:10.110Z,8.43
2023-05-22T21:50:38.374Z,7.96
2023-05-22T21:53:06.803Z,8.09
2023-05-22T21:55:36.169Z,7.78
2023-05-22T21:58:04.265Z,7.67
2023-05-22T22:00:32.385Z,8.36
2023-05-22T22:03:00.519Z,8.19
2023-05-22T22:05:28.787Z,7.77
2023-05-22T22:07:56.807Z,8.56
2023-05-22T22:10:24.787Z,8.02
2023-05-22T22:12:52.817Z,7.43
2023-05-22T22:15:21.863Z,7.22
2023-05-22T22:17:50.286Z,6.78
2023-05-22T22:20:24.763Z,7.18
2023-05-22T22:22:59.077Z,6.91
2023-05-22T22:25:27.317Z,6.79
2023-05-22T22:27:55.708Z,7.08
2023-05-22T22:30:23.792Z,7.36
2023-05-22T22:32:52.202Z,7.16
2023-05-22T22:35:20.705Z,8.02
2023-05-22T22:37:48.799Z,7.59
2023-05-22T22:40:16.894Z,7.93
2023-05-22T22:42:44.925Z,8.40
2023-05-22T22:45:12.971Z,7.72
2023-05-22T22:47:41.061Z,8.03
2023-05-22T22:50:10.116Z,7.72
2023-05-22T22:52:38.376Z,7.81
2023-05-22T22:55:07.273Z,7.80
2023-05-22T22:57:36.249Z,8.10
2023-05-22T23:00:05.673Z,8.60
2023-05-22T23:02:33.854Z,8.21
2023-05-22T23:05:02.069Z,7.86
2023-05-22T23:07:30.380Z,8.05
2023-05-22T23:09:58.368Z,7.77
2023-05-22T23:12:26.527Z,8.37
2023-05-22T23:14:55.598Z,8.73
2023-05-22T23:17:23.645Z,8.24
2023-05-22T23:19:52.009Z,8.48
2023-05-22T23:22:20.036Z,7.77
2023-05-22T23:24:48.062Z,7.39
2023-05-22T23:27:16.042Z,7.82
2023-05-22T23:29:44.109Z,7.80
2023-05-22T23:32:14.568Z,7.70
2023-05-22T23:34:43.288Z,7.96
2023-05-22T23:37:11.314Z,8.08
2023-05-22T23:39:39.514Z,8.01
2023-05-22T23:42:09.894Z,8.79
2023-05-22T23:44:38.016Z,8.67
2023-05-22T23:47:06.734Z,8.66
2023-05-22T23:49:35.481Z,8.86
2023-05-22T23:52:03.963Z,9.00
2023-05-22T23:54:31.995Z,9.34
2023-05-22T23:57:00.209Z,8.73
2023-05-22T23:59:28.208Z,8.43
